• Join FlightAware (Why Join?)
  • Login
  • US Flag 
09:40AM EDT


 

Airport Tracker/Info


-or-


 

Live Flight TrackerFlight Track Log ✈ AFL150 ✈ 10-Dec-2013 ✈ ESSA / ARN - MUHA / HAV

Flight Track Log - Related Links

Times and Time Zones

All times are in EST time to prevent confusion due to time zone crossing. See the AFL150 flight status page for this flight to view local times or setup timezone preferences in your user account.

Time Position Orientation Groundspeed Altitude Reporting Facility
EST Latitude Longitude Course Direction KTS MPH feet Rate Location/Type
08:27AM 59.6241 17.9090 192° South 153 176 1,400  Level FlightAware ADS-B (YKMB / KRB)
08:27AM 59.6092 17.8982 200° South 157 181 1,900 1,200 Climbing FlightAware ADS-B (YKMB / KRB)
08:28AM 59.6017 17.8736 239° Southwest 168 193 2,200 720 Climbing FlightAware ADS-B (YKMB / KRB)
08:28AM 59.5942 17.8431 244° Southwest 196 226 2,400 1,020 Climbing FlightAware ADS-B (YKMB / KRB)
08:28AM 59.5856 17.8095 243° Southwest 204 235 2,900 1,320 Climbing FlightAware ADS-B (YKMB / KRB)
08:29AM 59.5762 17.7726 243° Southwest 229 264 3,300 1,620 Climbing FlightAware ADS-B (YKMB / KRB)
08:29AM 59.5677 17.7348 246° West 235 270 4,000 2,400 Climbing FlightAware ADS-B (YKMB / KRB)
08:29AM 59.5681 17.6917 271° West 238 274 4,900 2,520 Climbing FlightAware ADS-B (YKMB / KRB)
08:30AM 59.5693 17.6472 273° West 241 277 5,700 2,220 Climbing FlightAware ADS-B (YKMB / KRB)
08:30AM 59.5714 17.6051 276° West 245 282 6,400 2,100 Climbing FlightAware ADS-B (YKMB / KRB)
08:30AM 59.5764 17.5613 283° West 255 293 7,100 2,220 Climbing FlightAware ADS-B (YKMB / KRB)
08:31AM 59.5817 17.5123 282° West 262 302 7,900 2,700 Climbing FlightAware ADS-B (YKMB / KRB)
08:31AM 59.5867 17.4655 282° West 260 299 8,900 2,580 Climbing FlightAware ADS-B (YKMB / KRB)
08:31AM 59.5913 17.4212 282° West 263 303 9,600 1,860 Climbing FlightAware ADS-B (YKMB / KRB)
08:32AM 59.6016 17.3225 282° West 281 323 10,800 1,320 Climbing FlightAware ADS-B (YKMB / KRB)
08:33AM 59.6128 17.2155 282° West 322 371 11,400 1,080 Climbing FlightAware ADS-B (YKMB / KRB)
08:33AM 59.6253 17.0928 282° West 350 403 12,300 1,920 Climbing FlightAware ADS-B (YKMB / KRB)
08:34AM 59.6378 16.9691 281° West 352 405 14,000 2,460 Climbing FlightAware ADS-B (YKMB / KRB)
08:35AM 59.6505 16.8415 281° West 353 406 15,600 2,100 Climbing FlightAware ADS-B (YKMB / KRB)
08:35AM 59.6631 16.7153 281° West 363 418 16,800 1,800 Climbing FlightAware ADS-B (YKMB / KRB)
08:36AM 59.6758 16.5855 281° West 374 430 18,000 1,980 Climbing FlightAware ADS-B (YKMB / KRB)
08:37AM 59.6888 16.4506 281° West 372 428 19,500 1,740 Climbing FlightAware ADS-B (YKMB / KRB)
08:37AM 59.7021 16.3121 281° West 385 443 20,400 1,560 Climbing FlightAware ADS-B (YKMB / KRB)
08:38AM 59.7150 16.1755 281° West 388 447 21,600 1,620 Climbing FlightAware ADS-B (YKMB / KRB)
08:39AM 59.7418 15.8867 281° West 400 460 23,700 1,440 Climbing FlightAware ADS-B (YKMB / KRB)
08:40AM 59.7575 15.7148 280° West 407 468 24,700 300 Climbing FlightAware ADS-B (YKMB / KRB)
08:43AM 59.8418 15.2144 289° West  Level Estimated
08:44AM 59.8771 15.0007 288° West  Level Estimated
08:45AM 59.9120 14.7866 288° West  Level Estimated
08:46AM 59.9467 14.5720 288° West  Level Estimated
08:47AM 59.9809 14.3569 288° West  Level Estimated
08:48AM 60.0148 14.1414 288° West  Level Estimated
08:49AM 60.0484 13.9255 287° West  Level Estimated
08:50AM 60.0816 13.7091 287° West  Level Estimated
08:51AM 60.1144 13.4923 287° West  Level Estimated
08:52AM 60.1469 13.2751 287° West  Level Estimated
08:53AM 60.1791 13.0574 287° West  Level Estimated
08:54AM 60.2108 12.8393 286° West  Level Estimated
08:55AM 60.2423 12.6208 286° West  Level Estimated
08:56AM 60.2733 12.4019 286° West  Level Estimated
08:57AM 60.3040 12.1826 286° West  Level Estimated
08:58AM 60.3344 11.9628 286° West  Level Estimated
08:59AM 60.3643 11.7427 285° West  Level Estimated
09:00AM 60.3940 11.5221 285° West  Level Estimated
09:01AM 60.4232 11.3012 285° West  Level Estimated
09:02AM 60.4521 11.0798 285° West  Level Estimated
09:03AM 60.4806 10.8581 285° West  Level Estimated
09:04AM 60.5087 10.6360 285° West  Level Estimated
09:05AM 60.5365 10.4134 284° West  Level Estimated
09:06AM 60.5639 10.1905 284° West  Level Estimated
09:07AM 60.5909 9.9673 284° West  Level Estimated
09:08AM 60.6176 9.7436 284° West  Level Estimated
09:09AM 60.6439 9.5196 284° West  Level Estimated
09:10AM 60.6698 9.2953 283° West  Level Estimated
09:11AM 60.6953 9.0705 283° West  Level Estimated
09:12AM 60.7205 8.8455 283° West  Level Estimated
09:13AM 60.7453 8.6200 283° West  Level Estimated
09:14AM 60.7697 8.3942 283° West  Level Estimated
09:15AM 60.7937 8.1681 282° West  Level Estimated
09:15AM 60.6988 7.6130 282° West 439 505 36,000  Level FlightAware ADS-B (EGBP)
09:16AM 60.7221 7.3715 281° West 440 506 36,000  Level FlightAware ADS-B (EGBP)
09:17AM 60.7378 7.2062 281° West 438 504 36,000  Level FlightAware ADS-B (EGBP)
09:17AM 60.7518 7.0564 281° West 438 504 36,000  Level FlightAware ADS-B (EGBP)
09:18AM 60.7678 6.8835 281° West 437 503 36,000  Level FlightAware ADS-B (EGBP)
09:19AM 60.7820 6.7271 281° West 437 503 36,000  Level FlightAware ADS-B (EGBP)
09:19AM 60.7954 6.5786 280° West 436 502 36,000  Level FlightAware ADS-B (EGBP)
09:20AM 60.8116 6.3963 280° West 436 502 36,000  Level FlightAware ADS-B (EGBP)
09:21AM 60.8247 6.2441 280° West 435 501 36,000  Level FlightAware ADS-B (EGBP)
09:21AM 60.8392 6.0755 280° West 435 501 36,000  Level FlightAware ADS-B (EGBP)
09:22AM 60.8519 5.9261 280° West 434 499 36,000  Level FlightAware ADS-B (EGBP)
09:23AM 60.8647 5.7733 280° West 435 501 36,000  Level FlightAware ADS-B (EGBP)
09:25AM 60.9005 5.3541 280° West  Level Estimated
09:26AM 60.9195 5.1251 280° West  Level Estimated
09:27AM 60.9381 4.8958 280° West  Level Estimated
09:28AM 60.9563 4.6662 279° West  Level Estimated
09:29AM 60.9741 4.4364 279° West  Level Estimated
09:30AM 60.9916 4.2063 279° West  Level Estimated
09:31AM 61.0086 3.9760 279° West  Level Estimated
09:32AM 61.0252 3.7454 279° West  Level Estimated
09:33AM 61.0415 3.5146 278° West  Level Estimated
09:34AM 61.0573 3.2835 278° West  Level Estimated
09:35AM 61.0728 3.0522 278° West  Level Estimated
09:36AM 61.0879 2.8207 278° West  Level Estimated
09:37AM 61.1025 2.5890 278° West  Level Estimated
09:38AM 61.1168 2.3571 277° West  Level Estimated
09:39AM 61.1307 2.1249 277° West  Level Estimated
09:40AM 61.1442 1.8926 277° West  Level Estimated
09:41AM 61.1572 1.6600 277° West  Level Estimated
09:42AM 61.1699 1.4273 277° West  Level Estimated
09:43AM 61.1822 1.1944 276° West  Level Estimated
09:44AM 61.1941 0.9613 276° West  Level Estimated
09:45AM 61.2056 0.7280 276° West  Level Estimated
09:46AM 61.2166 0.4946 276° West  Level Estimated
09:47AM 61.2273 0.2610 276° West  Level Estimated
09:48AM 61.2376 0.0273 275° West  Level Estimated
09:49AM 61.2475 -0.2066 275° West  Level Estimated
09:50AM 61.2569 -0.4407 275° West  Level Estimated
09:51AM 61.2660 -0.6748 275° West  Level Estimated
09:52AM 61.2747 -0.9092 275° West  Level Estimated
09:53AM 61.2829 -1.1436 274° West  Level Estimated
09:54AM 61.2908 -1.3781 274° West  Level Estimated
09:55AM 61.2982 -1.6128 274° West  Level Estimated
09:56AM 61.3053 -1.8476 274° West  Level Estimated
09:57AM 61.3119 -2.0825 273° West  Level Estimated
09:58AM 61.3181 -2.3175 273° West  Level Estimated
09:59AM 61.3240 -2.5525 273° West  Level Estimated
10:00AM 61.3294 -2.7877 273° West  Level Estimated
10:01AM 61.3344 -3.0229 273° West  Level Estimated
10:02AM 61.3390 -3.2582 272° West  Level Estimated
10:03AM 61.3432 -3.4936 272° West  Level Estimated
10:04AM 61.3470 -3.7290 272° West  Level Estimated
10:05AM 61.3504 -3.9645 272° West  Level Estimated
10:06AM 61.3534 -4.2000 272° West  Level Estimated
10:07AM 61.3559 -4.4356 271° West  Level Estimated
10:08AM 61.3581 -4.6712 271° West  Level Estimated
10:09AM 61.3599 -4.9069 271° West  Level Estimated
10:10AM 61.3612 -5.1425 271° West  Level Estimated
10:11AM 61.3621 -5.3782 271° West  Level Estimated
10:12AM 61.3627 -5.6139 270° West  Level Estimated
10:13AM 61.3628 -5.8496 270° West  Level Estimated
10:14AM 61.3625 -6.0853 270° West  Level Estimated
10:15AM 61.3618 -6.3210 270° West  Level Estimated
10:16AM 61.3607 -6.5567 270° West  Level Estimated
10:17AM 61.3592 -6.7923 269° West  Level Estimated
10:18AM 61.3573 -7.0280 269° West  Level Estimated
10:19AM 61.3550 -7.2636 269° West  Level Estimated
10:20AM 61.3523 -7.4991 269° West  Level Estimated
10:21AM 61.3491 -7.7347 269° West  Level Estimated
10:22AM 61.3456 -7.9701 268° West  Level Estimated
10:23AM 61.3416 -8.2055 268° West  Level Estimated
10:24AM 61.3373 -8.4409 268° West  Level Estimated
10:25AM 61.3325 -8.6762 268° West  Level Estimated
10:26AM 61.3274 -8.9114 267° West  Level Estimated
10:27AM 61.3218 -9.1465 267° West  Level Estimated
10:28AM 61.3158 -9.3815 267° West  Level Estimated
10:29AM 61.3094 -9.6165 267° West  Level Estimated
10:30AM 61.3026 -9.8513 267° West  Level Estimated
10:31AM 61.2954 -10.0861 266° West  Level Estimated
10:32AM 61.2878 -10.3207 266° West  Level Estimated
10:33AM 61.2798 -10.5552 266° West  Level Estimated
10:34AM 61.2714 -10.7896 266° West  Level Estimated
10:35AM 61.2626 -11.0239 266° West  Level Estimated
10:36AM 61.2533 -11.2580 265° West  Level Estimated
10:37AM 61.2437 -11.4920 265° West  Level Estimated
10:38AM 61.2337 -11.7258 265° West  Level Estimated
10:39AM 61.2233 -11.9595 265° West  Level Estimated
10:40AM 61.2124 -12.1930 265° West  Level Estimated
10:41AM 61.2012 -12.4264 264° West  Level Estimated
10:42AM 61.1896 -12.6596 264° West  Level Estimated
10:43AM 61.1776 -12.8926 264° West  Level Estimated
10:44AM 61.1651 -13.1255 264° West  Level Estimated
10:45AM 61.1523 -13.3581 264° West  Level Estimated
10:46AM 61.1391 -13.5906 263° West  Level Estimated
10:47AM 61.1254 -13.8229 263° West  Level Estimated
10:48AM 61.1114 -14.0549 263° West  Level Estimated
10:49AM 61.0970 -14.2868 263° West  Level Estimated
10:50AM 61.0821 -14.5184 263° West  Level Estimated
10:51AM 61.0669 -14.7498 262° West  Level Estimated
10:52AM 61.0513 -14.9810 262° West  Level Estimated
10:53AM 61.0353 -15.2120 262° West  Level Estimated
10:54AM 61.0189 -15.4427 262° West  Level Estimated
10:55AM 61.0021 -15.6732 262° West  Level Estimated
10:56AM 60.9849 -15.9035 261° West  Level Estimated
10:57AM 60.9673 -16.1334 261° West  Level Estimated
10:58AM 60.9494 -16.3632 261° West  Level Estimated
10:59AM 60.9310 -16.5926 261° West  Level Estimated
11:00AM 60.9123 -16.8218 261° West  Level Estimated
11:01AM 60.8931 -17.0508 260° West  Level Estimated
11:02AM 60.8736 -17.2794 260° West  Level Estimated
11:03AM 60.8537 -17.5078 260° West  Level Estimated
11:04AM 60.8334 -17.7359 260° West  Level Estimated
11:05AM 60.8127 -17.9637 260° West  Level Estimated
11:06AM 60.7916 -18.1912 259° West  Level Estimated
11:07AM 60.7701 -18.4183 259° West  Level Estimated
11:08AM 60.7483 -18.6452 259° West  Level Estimated
11:09AM 60.7261 -18.8718 259° West  Level Estimated
11:10AM 60.7035 -19.0981 259° West  Level Estimated
11:11AM 60.6805 -19.3240 258° West  Level Estimated
11:12AM 60.6571 -19.5496 258° West  Level Estimated
11:13AM 60.6334 -19.7749 258° West  Level Estimated
11:14AM 60.6092 -19.9998 258° West  Level Estimated
11:15AM 60.5847 -20.2244 258° West  Level Estimated
11:16AM 60.5598 -20.4487 257° West  Level Estimated
11:17AM 60.5346 -20.6726 257° West  Level Estimated
11:18AM 60.5090 -20.8962 257° West  Level Estimated
11:19AM 60.4830 -21.1194 257° West  Level Estimated
11:20AM 60.4566 -21.3423 257° West  Level Estimated
11:21AM 60.4299 -21.5648 256° West  Level Estimated
11:22AM 60.4027 -21.7869 256° West  Level Estimated
11:23AM 60.3753 -22.0086 256° West  Level Estimated
11:24AM 60.3474 -22.2300 256° West  Level Estimated
11:25AM 60.3192 -22.4510 256° West  Level Estimated
11:26AM 60.2906 -22.6716 255° West  Level Estimated
11:27AM 60.2617 -22.8918 255° West  Level Estimated
11:28AM 60.2324 -23.1117 255° West  Level Estimated
11:29AM 60.2027 -23.3311 255° West  Level Estimated
11:30AM 60.1726 -23.5501 255° West  Level Estimated
11:31AM 60.1422 -23.7687 254° West  Level Estimated
11:32AM 60.1115 -23.9870 254° West  Level Estimated
11:33AM 60.0804 -24.2048 254° West  Level Estimated
11:34AM 60.0489 -24.4222 254° West  Level Estimated
11:35AM 60.0171 -24.6392 254° West  Level Estimated
11:36AM 59.9849 -24.8557 254° West  Level Estimated
11:37AM 59.9523 -25.0719 253° West  Level Estimated
11:38AM 59.9194 -25.2876 253° West  Level Estimated
11:39AM 59.8862 -25.5029 253° West  Level Estimated
11:40AM 59.8526 -25.7177 253° West  Level Estimated
11:41AM 59.8187 -25.9321 253° West  Level Estimated
11:42AM 59.7844 -26.1461 252° West  Level Estimated
11:43AM 59.7497 -26.3597 252° West  Level Estimated
11:44AM 59.7148 -26.5728 252° West  Level Estimated
11:45AM 59.6794 -26.7854 252° West  Level Estimated
11:46AM 59.6438 -26.9976 252° West  Level Estimated
11:47AM 59.6078 -27.2094 252° West  Level Estimated
11:48AM 59.5714 -27.4206 251° West  Level Estimated
11:49AM 59.5347 -27.6315 251° West  Level Estimated
11:50AM 59.4977 -27.8418 251° West  Level Estimated
11:51AM 59.4603 -28.0518 251° West  Level Estimated
11:52AM 59.4226 -28.2612 251° West  Level Estimated
11:53AM 59.3846 -28.4702 250° West  Level Estimated
11:54AM 59.3462 -28.6787 250° West  Level Estimated
11:55AM 59.3075 -28.8867 250° West  Level Estimated
11:56AM 59.2685 -29.0942 250° West  Level Estimated
11:57AM 59.2291 -29.3013 250° West  Level Estimated
11:58AM 59.1894 -29.5079 250° West  Level Estimated
11:59AM 59.1494 -29.7140 249° West  Level Estimated
12:00PM 59.1091 -29.9197 249° West  Level Estimated
12:01PM 59.0684 -30.1248 249° West  Level Estimated
12:02PM 59.0274 -30.3295 249° West  Level Estimated
12:03PM 58.9861 -30.5336 249° West  Level Estimated
12:04PM 58.9445 -30.7373 248° West  Level Estimated
12:05PM 58.9025 -30.9405 248° West  Level Estimated
12:06PM 58.8602 -31.1432 248° West  Level Estimated
12:07PM 58.8176 -31.3454 248° West  Level Estimated
12:08PM 58.7747 -31.5471 248° West  Level Estimated
12:09PM 58.7315 -31.7483 248° West  Level Estimated
12:10PM 58.6880 -31.9490 247° West  Level Estimated
12:11PM 58.6442 -32.1492 247° West  Level Estimated
12:12PM 58.6000 -32.3489 247° West  Level Estimated
12:13PM 58.5555 -32.5481 247° West  Level Estimated
12:14PM 58.5108 -32.7468 247° West  Level Estimated
12:15PM 58.4657 -32.9449 247° West  Level Estimated
12:16PM 58.4203 -33.1426 246° West  Level Estimated
12:17PM 58.3746 -33.3397 246° West  Level Estimated
12:18PM 58.3287 -33.5364 246° West  Level Estimated
12:19PM 58.2824 -33.7325 246° West  Level Estimated
12:20PM 58.2358 -33.9281 246° West  Level Estimated
12:21PM 58.1889 -34.1232 246° West  Level Estimated
12:22PM 58.1417 -34.3178 245° Southwest  Level Estimated
12:23PM 58.0943 -34.5119 245° Southwest  Level Estimated
12:24PM 58.0465 -34.7054 245° Southwest  Level Estimated
12:25PM 57.9984 -34.8985 245° Southwest  Level Estimated
12:26PM 57.9501 -35.0910 245° Southwest  Level Estimated
12:27PM 57.9014 -35.2830 245° Southwest  Level Estimated
12:28PM 57.8525 -35.4744 244° Southwest  Level Estimated
12:29PM 57.8033 -35.6654 244° Southwest  Level Estimated
12:30PM 57.7538 -35.8558 244° Southwest  Level Estimated
12:31PM 57.7040 -36.0457 244° Southwest  Level Estimated
12:32PM 57.6539 -36.2351 244° Southwest  Level Estimated
12:33PM 57.6036 -36.4240 244° Southwest  Level Estimated
12:34PM 57.5529 -36.6123 243° Southwest  Level Estimated
12:35PM 57.5020 -36.8001 243° Southwest  Level Estimated
12:36PM 57.4508 -36.9874 243° Southwest  Level Estimated
12:37PM 57.3993 -37.1742 243° Southwest  Level Estimated
12:37PM 65.0000 -40.0000 261° West 429 494 36,000  Level ETMS Enhanced Traffic Management System
12:38PM 57.3476 -37.3604 243° Southwest  Level Estimated
12:39PM 57.2956 -37.5461 243° Southwest  Level Estimated
12:40PM 57.2433 -37.7313 243° Southwest  Level Estimated
12:41PM 57.1907 -37.9160 242° Southwest  Level Estimated
12:42PM 57.1379 -38.1001 242° Southwest  Level Estimated
12:43PM 64.5983 -44.9563 257° West 429 494 36,000  Level FlightAware Transoceanic
12:44PM 64.5711 -45.2270 257° West 429 494 36,000  Level FlightAware Transoceanic
12:45PM 64.5435 -45.4972 256° West 429 494 36,000  Level FlightAware Transoceanic
12:46PM 64.5154 -45.7668 256° West 429 494 36,000  Level FlightAware Transoceanic
12:47PM 64.4868 -46.0359 256° West 429 494 36,000  Level FlightAware Transoceanic
12:47PM 65.0000 -40.0000 261° West 429 494 36,000  Level ETMS Enhanced Traffic Management System
12:48PM 64.4577 -46.3044 256° West 429 494 36,000  Level FlightAware Transoceanic
12:49PM 64.4281 -46.5724 256° West 429 494 36,000  Level FlightAware Transoceanic
12:50PM 64.3981 -46.8397 255° West 429 494 36,000  Level FlightAware Transoceanic
12:51PM 64.3675 -47.1065 255° West 429 494 36,000  Level FlightAware Transoceanic
12:52PM 64.3365 -47.3727 255° West 429 494 36,000  Level FlightAware Transoceanic
12:53PM 64.3050 -47.6382 255° West 429 494 36,000  Level FlightAware Transoceanic
12:54PM 64.2730 -47.9032 254° West 429 494 36,000  Level FlightAware Transoceanic
12:55PM 64.2405 -48.1675 254° West 429 494 36,000  Level FlightAware Transoceanic
12:56PM 64.2076 -48.4312 254° West 429 494 36,000  Level FlightAware Transoceanic
12:57PM 64.1742 -48.6943 254° West 429 494 36,000  Level FlightAware Transoceanic
12:58PM 64.1403 -48.9567 253° West 429 494 36,000  Level FlightAware Transoceanic
12:59PM 64.1059 -49.2185 253° West 429 494 36,000  Level FlightAware Transoceanic
01:00PM 64.0711 -49.4797 253° West 429 494 36,000  Level FlightAware Transoceanic
01:01PM 64.0358 -49.7402 253° West 429 494 36,000  Level FlightAware Transoceanic
01:02PM 63.9536 -49.9169 223° Southwest  Level Estimated
01:03PM 63.8712 -50.0925 223° Southwest  Level Estimated
01:04PM 63.7885 -50.2672 223° Southwest  Level Estimated
01:05PM 63.7057 -50.4408 223° Southwest  Level Estimated
01:06PM 63.6226 -50.6134 223° Southwest  Level Estimated
01:07PM 63.5394 -50.7850 223° Southwest  Level Estimated
01:08PM 63.4559 -50.9556 222° Southwest  Level Estimated
01:09PM 63.3723 -51.1252 222° Southwest  Level Estimated
01:10PM 63.2884 -51.2939 222° Southwest  Level Estimated
01:11PM 63.2044 -51.4615 222° Southwest  Level Estimated
01:12PM 63.1201 -51.6282 222° Southwest  Level Estimated
01:13PM 63.0357 -51.7939 222° Southwest  Level Estimated
01:14PM 62.9510 -51.9586 222° Southwest  Level Estimated
01:15PM 62.8662 -52.1224 221° Southwest  Level Estimated
01:16PM 62.7812 -52.2853 221° Southwest  Level Estimated
01:17PM 62.6960 -52.4472 221° Southwest  Level Estimated
01:18PM 62.6106 -52.6082 221° Southwest  Level Estimated
01:19PM 62.5250 -52.7682 221° Southwest  Level Estimated
01:20PM 62.4393 -52.9274 221° Southwest  Level Estimated
01:21PM 62.3533 -53.0856 221° Southwest  Level Estimated
01:22PM 62.2672 -53.2429 220° Southwest  Level Estimated
01:23PM 62.1809 -53.3994 220° Southwest  Level Estimated
01:24PM 62.0944 -53.5549 220° Southwest  Level Estimated
01:25PM 62.0078 -53.7095 220° Southwest  Level Estimated
01:26PM 61.9210 -53.8633 220° Southwest  Level Estimated
01:27PM 61.8340 -54.0162 220° Southwest  Level Estimated
01:28PM 61.7460 -54.1697 220° Southwest  Level Estimated
01:29PM 61.6579 -54.3223 219° Southwest  Level Estimated
01:30PM 61.5696 -54.4740 219° Southwest  Level Estimated
01:31PM 61.4811 -54.6249 219° Southwest  Level Estimated
01:32PM 61.3924 -54.7749 219° Southwest  Level Estimated
01:33PM 61.3036 -54.9241 219° Southwest  Level Estimated
01:34PM 61.2146 -55.0724 219° Southwest  Level Estimated
01:35PM 61.1255 -55.2199 219° Southwest  Level Estimated
01:36PM 61.0362 -55.3665 219° Southwest  Level Estimated
01:37PM 60.9467 -55.5123 218° Southwest  Level Estimated
01:38PM 60.8571 -55.6573 218° Southwest  Level Estimated
01:39PM 60.7673 -55.8016 218° Southwest  Level Estimated
01:40PM 60.6774 -55.9449 218° Southwest  Level Estimated
01:40PM 62.2167 -59.1500 217° Southwest 360 414 36,000  Level Gander Center
01:41PM 60.5873 -56.0875 218° Southwest  Level Estimated
01:41PM 62.1667 -59.4000 247° West 440 506 36,000  Level Gander Center
01:42PM 60.4971 -56.2293 218° Southwest  Level Estimated
01:42PM 62.1000 -59.6167 237° Southwest 430 495 36,000  Level Gander Center
01:43PM 60.4067 -56.3703 218° Southwest  Level Estimated
01:43PM 62.0500 -59.8333 244° Southwest 430 495 36,000  Level Gander Center
01:44PM 60.3162 -56.5106 218° Southwest  Level Estimated
01:44PM 61.9667 -60.0500 231° Southwest 430 495 36,000  Level Gander Center
01:45PM 60.2255 -56.6500 217° Southwest  Level Estimated
01:45PM 61.8833 -60.2333 226° Southwest 420 483 36,000  Level Gander Center
01:46PM 61.7833 -60.3667 212° Southwest 420 483 36,000  Level Gander Center
01:47PM 61.7000 -60.4833 214° Southwest 420 483 36,000  Level Montreal Center
01:48PM 61.6167 -60.6667 226° Southwest 430 495 36,000  Level Montreal Center
01:49PM 61.5333 -60.8167 221° Southwest 430 495 36,000  Level Montreal Center
01:50PM 61.4500 -61.0000 226° Southwest 420 483 36,000  Level Montreal Center
01:51PM 61.3500 -61.1500 216° Southwest 420 483 36,000  Level Montreal Center
01:52PM 61.2667 -61.3000 221° Southwest 420 483 36,000  Level Montreal Center
01:53PM 61.1833 -61.5167 231° Southwest 420 483 36,000  Level Gander Center
01:54PM 61.1000 -61.6667 221° Southwest 420 483 36,000  Level Gander Center
01:55PM 61.0000 -61.7667 206° Southwest 420 483 36,000  Level Montreal Center
01:56PM 60.9167 -61.9000 218° Southwest 420 483 36,000  Level Montreal Center
01:57PM 60.8333 -62.1333 234° Southwest 420 483 36,000  Level Gander Center
01:58PM 60.7500 -62.2667 218° Southwest 420 483 36,000  Level Gander Center
01:59PM 60.6500 -62.4667 224° Southwest 420 483 36,000  Level Gander Center
02:00PM 60.6000 -62.6333 239° Southwest 410 472 36,000  Level Gander Center
02:01PM 60.5333 -62.8667 240° Southwest 420 483 36,000  Level Gander Center
02:02PM 60.4833 -63.0667 243° Southwest 430 495 36,000  Level Gander Center
02:03PM 60.4500 -63.3333 256° West 430 495 36,000  Level Gander Center
02:04PM 60.4167 -63.5333 251° West 430 495 36,000  Level Gander Center
02:05PM 60.3667 -63.7667 247° West 430 495 36,000  Level Gander Center
02:06PM 60.3167 -64.0000 247° West 430 495 36,000  Level Gander Center
02:07PM 60.2833 -64.2333 254° West 430 495 36,000  Level Gander Center
02:08PM 60.2500 -64.3833 246° West 420 483 36,000  Level Montreal Center
02:09PM 60.2000 -64.6000 245° Southwest 430 495 36,000  Level Montreal Center
02:10PM 60.1500 -64.8333 247° West 430 495 36,000  Level Montreal Center
02:11PM 60.1000 -65.0500 245° Southwest 420 483 36,000  Level Montreal Center
02:12PM 60.0333 -65.2000 228° Southwest 420 483 36,000  Level Montreal Center
02:13PM 59.9333 -65.3667 220° Southwest 420 483 36,000  Level Montreal Center
02:14PM 59.8500 -65.5333 225° Southwest 420 483 36,000  Level Montreal Center
02:15PM 59.7667 -65.7000 225° Southwest 420 483 36,000  Level Montreal Center
02:16PM 59.6667 -65.8500 217° Southwest 420 483 36,000  Level Montreal Center
02:17PM 59.5833 -66.0167 225° Southwest 420 483 36,000  Level Montreal Center
02:18PM 59.5000 -66.1333 215° Southwest 420 483 36,000  Level Montreal Center
02:19PM 59.4167 -66.3000 226° Southwest 420 483 36,000  Level Montreal Center
02:20PM 59.3167 -66.5000 226° Southwest 420 483 36,000  Level Gander Center
02:21PM 59.2333 -66.6500 223° Southwest 420 483 36,000  Level Gander Center
02:22PM 59.1333 -66.8000 218° Southwest 420 483 36,000  Level Gander Center
02:23PM 59.0500 -66.8833 207° Southwest 420 483 36,000  Level Montreal Center
02:24PM 58.9667 -67.0500 226° Southwest 420 483 36,000  Level Montreal Center
02:25PM 58.8667 -67.2500 226° Southwest 430 495 36,000  Level Gander Center
02:26PM 58.7833 -67.4000 223° Southwest 430 495 36,000  Level Gander Center
02:27PM 58.7000 -67.5000 212° Southwest 420 483 36,000  Level Gander Center
02:28PM 58.6000 -67.6833 224° Southwest 420 483 36,000  Level Gander Center
02:29PM 58.5167 -67.8333 223° Southwest 420 483 36,000  Level Gander Center
02:30PM 58.4167 -67.8833 195° South 420 483 36,000  Level Montreal Center
02:31PM 58.3333 -68.0333 223° Southwest 420 483 36,000  Level Montreal Center
02:32PM 58.2333 -68.1833 218° Southwest 430 495 36,000  Level Montreal Center
02:33PM 58.1000 -68.4167 223° Southwest 450 518 36,000  Level Montreal Center
02:34PM 58.0333 -68.4833 208° Southwest 450 518 36,000  Level Montreal Center
02:35PM 57.9500 -68.6000 217° Southwest 430 495 36,000  Level Montreal Center
02:36PM 57.8500 -68.7500 219° Southwest 430 495 36,000  Level Montreal Center
02:37PM 57.7500 -68.8667 212° Southwest 420 483 36,000  Level Montreal Center
02:38PM 57.6667 -69.0000 221° Southwest 420 483 36,000  Level Montreal Center
02:39PM 57.5667 -69.1167 212° Southwest 420 483 36,000  Level Montreal Center
02:40PM 57.4667 -69.2667 219° Southwest 420 483 36,000  Level Montreal Center
02:41PM 57.3833 -69.3667 213° Southwest 420 483 36,000  Level Montreal Center
02:42PM 57.2833 -69.5167 219° Southwest 420 483 36,000  Level Montreal Center
02:43PM 57.1833 -69.6167 208° Southwest 420 483 36,000  Level Montreal Center
02:44PM 57.1000 -69.7667 224° Southwest 420 483 36,000  Level Montreal Center
02:45PM 56.9833 -69.8667 205° Southwest 420 483 36,000  Level Montreal Center
02:46PM 56.8833 -70.0167 219° Southwest 420 483 36,000  Level Montreal Center
02:47PM 56.7833 -70.1500 216° Southwest 420 483 36,000  Level Montreal Center
02:48PM 56.7000 -70.2500 213° Southwest 420 483 36,000  Level Montreal Center
02:49PM 56.6000 -70.4000 220° Southwest 420 483 36,000  Level Montreal Center
02:50PM 56.5000 -70.5000 209° Southwest 430 495 36,000  Level Montreal Center
02:51PM 56.4000 -70.6333 216° Southwest 420 483 36,000  Level Montreal Center
02:52PM 56.3167 -70.7333 214° Southwest 420 483 36,000  Level Montreal Center
02:53PM 56.2167 -70.8500 213° Southwest 420 483 36,000  Level Montreal Center
02:54PM 56.1000 -70.9833 213° Southwest 420 483 36,000  Level Montreal Center
02:55PM 56.0000 -71.1167 217° Southwest 420 483 36,000  Level Montreal Center
02:56PM 55.9167 -71.2167 214° Southwest 420 483 36,000  Level Montreal Center
02:57PM 55.8333 -71.3167 214° Southwest 420 483 36,000  Level Montreal Center
02:58PM 55.7333 -71.4500 217° Southwest 410 472 36,000  Level Montreal Center
02:59PM 55.6333 -71.5500 209° Southwest 410 472 36,000  Level Montreal Center
03:00PM 55.5333 -71.6833 217° Southwest 420 483 36,000  Level Montreal Center
03:01PM 55.4333 -71.7833 210° Southwest 410 472 36,000  Level Montreal Center
03:02PM 55.3500 -71.9000 219° Southwest 410 472 36,000  Level Montreal Center
03:03PM 55.2500 -72.0000 210° Southwest 410 472 36,000  Level Montreal Center
03:04PM 55.1500 -72.1333 217° Southwest 420 483 36,000  Level Montreal Center
03:05PM 55.0500 -72.2333 210° Southwest 420 483 36,000  Level Montreal Center
03:06PM 54.9500 -72.3333 210° Southwest 420 483 36,000  Level Montreal Center
03:07PM 54.8333 -72.4500 210° Southwest 420 483 36,000  Level Montreal Center
03:08PM 54.7333 -72.5833 218° Southwest 420 483 36,000  Level Montreal Center
03:09PM 54.6500 -72.6667 210° Southwest 420 483 36,000  Level Montreal Center
03:10PM 54.5500 -72.8000 218° Southwest 420 483 36,000  Level Montreal Center
03:11PM 54.4500 -72.9000 210° Southwest 420 483 36,000  Level Montreal Center
03:12PM 54.3500 -73.0167 214° Southwest 420 483 36,000  Level Montreal Center
03:13PM 54.2500 -73.1167 210° Southwest 420 483 36,000  Level Montreal Center
03:14PM 54.1500 -73.2000 206° Southwest 420 483 36,000  Level Montreal Center
03:15PM 54.0500 -73.3167 214° Southwest 420 483 36,000  Level Montreal Center
03:16PM 53.9500 -73.4167 210° Southwest 420 483 36,000  Level Montreal Center
03:17PM 53.8500 -73.5333 215° Southwest 420 483 36,000  Level Montreal Center
03:18PM 53.7500 -73.6333 211° Southwest 410 472 36,000  Level Montreal Center
03:19PM 53.6500 -73.7167 206° Southwest 410 472 36,000  Level Montreal Center
03:20PM 53.5500 -73.8167 211° Southwest 410 472 36,000  Level Montreal Center
03:21PM 53.4500 -73.9000 206° Southwest 410 472 36,000  Level Montreal Center
03:22PM 53.3333 -73.9833 203° Southwest 410 472 36,000  Level Montreal Center
03:23PM 53.2333 -74.0833 211° Southwest 410 472 36,000  Level Montreal Center
03:24PM 53.1333 -74.1667 207° Southwest 410 472 36,000  Level Montreal Center
03:25PM 53.0333 -74.2500 207° Southwest 420 483 36,000  Level Montreal Center
03:26PM 52.9500 -74.3500 216° Southwest 420 483 36,000  Level Montreal Center
03:27PM 52.8333 -74.4333 203° Southwest 410 472 36,000  Level Montreal Center
03:28PM 52.7333 -74.5167 207° Southwest 410 472 36,000  Level Montreal Center
03:29PM 52.6333 -74.6000 207° Southwest 410 472 36,000  Level Montreal Center
03:30PM 52.5333 -74.6833 207° Southwest 410 472 36,000  Level Montreal Center
03:31PM 52.4167 -74.7500 199° South 410 472 36,000  Level Montreal Center
03:32PM 52.3167 -74.8333 207° Southwest 400 460 36,000  Level Montreal Center
03:33PM 52.2000 -74.9167 204° Southwest 410 472 36,000  Level Montreal Center
03:34PM 52.1000 -75.0000 207° Southwest 410 472 36,000  Level Montreal Center
03:35PM 52.0000 -75.0833 207° Southwest 440 506 36,000  Level Montreal Center
03:36PM 51.9000 -75.1667 207° Southwest 410 472 36,000  Level Montreal Center
03:37PM 51.7833 -75.2500 204° Southwest 410 472 36,000  Level Montreal Center
03:38PM 51.6833 -75.3333 207° Southwest 410 472 36,000  Level Montreal Center
03:39PM 51.5833 -75.4167 207° Southwest 410 472 36,000  Level Montreal Center
03:40PM 51.4833 -75.4833 203° Southwest 410 472 36,000  Level Montreal Center
03:41PM 51.3667 -75.5667 204° Southwest 410 472 36,000  Level Montreal Center
03:42PM 51.2667 -75.6500 208° Southwest 410 472 36,000  Level Montreal Center
03:43PM 51.1667 -75.7167 203° Southwest 410 472 36,000  Level Montreal Center
03:44PM 51.0667 -75.8000 208° Southwest 410 472 36,000  Level Montreal Center
03:45PM 50.9667 -75.8833 208° Southwest 410 472 36,000  Level Montreal Center
03:46PM 50.8667 -75.9667 208° Southwest 410 472 36,000  Level Montreal Center
03:47PM 50.7667 -76.0167 198° South 410 472 36,000  Level Montreal Center
03:48PM 50.6500 -76.1000 204° Southwest 410 472 36,000  Level Montreal Center
03:49PM 50.5500 -76.1833 208° Southwest 410 472 36,000  Level Montreal Center
03:50PM 50.4500 -76.2500 203° Southwest 410 472 36,000  Level Montreal Center
03:51PM 50.3500 -76.3333 208° Southwest 410 472 36,000  Level Montreal Center
03:52PM 50.2333 -76.4167 205° Southwest 410 472 36,000  Level Montreal Center
03:53PM 50.1500 -76.4833 207° Southwest 410 472 36,000  Level Montreal Center
03:54PM 50.0167 -76.5667 202° Southwest 410 472 36,000  Level Montreal Center
03:55PM 49.9167 -76.6167 198° South 410 472 36,000  Level Montreal Center
03:56PM 49.8167 -76.7000 208° Southwest 410 472 36,000  Level Montreal Center
03:57PM 49.7167 -76.7667 203° Southwest 410 472 36,000  Level Montreal Center
03:58PM 49.6167 -76.8500 208° Southwest 410 472 36,000  Level Montreal Center
03:59PM 49.5167 -76.9167 203° Southwest 390 449 36,000  Level Montreal Center
04:00PM 49.4000 -77.0000 205° Southwest 430 495 36,000  Level Montreal Center
04:01PM 49.3000 -77.0667 204° Southwest 410 472 36,000  Level Montreal Center
04:02PM 49.2000 -77.1167 198° South 390 449 36,000  Level Montreal Center
04:03PM 49.1000 -77.2000 209° Southwest 410 472 36,000  Level Montreal Center
04:04PM 49.0000 -77.2667 204° Southwest 410 472 36,000  Level Montreal Center
04:05PM 48.8667 -77.3500 202° Southwest 410 472 36,000  Level Montreal Center
04:06PM 48.7667 -77.4167 204° Southwest 400 460 36,000  Level Montreal Center
04:07PM 48.6833 -77.5000 213° Southwest 400 460 36,000  Level Montreal Center
04:08PM 48.5667 -77.5667 201° Southwest 410 472 36,000  Level Montreal Center
04:09PM 48.4667 -77.6333 204° Southwest 410 472 36,000  Level Montreal Center
04:10PM 48.3667 -77.7167 209° Southwest 410 472 36,000  Level Montreal Center
04:11PM 48.2667 -77.7667 198° South 410 472 36,000  Level Montreal Center
04:12PM 48.1667 -77.8333 204° Southwest 410 472 36,000  Level Montreal Center
04:13PM 48.0500 -77.9000 201° Southwest 410 472 36,000  Level Montreal Center
04:14PM 47.9333 -77.9500 196° South 410 472 36,000  Level Montreal Center
04:15PM 47.8333 -78.0167 204° Southwest 410 472 36,000  Level Montreal Center
04:16PM 47.7333 -78.0833 204° Southwest 400 460 36,000  Level Montreal Center
04:17PM 47.6167 -78.1333 196° South 410 472 36,000  Level Montreal Center
04:18PM 47.5167 -78.2000 204° Southwest 410 472 36,000  Level Montreal Center
04:19PM 47.4167 -78.2667 204° Southwest 410 472 36,000  Level Montreal Center
04:20PM 47.3167 -78.3167 199° South 400 460 36,000  Level Montreal Center
04:21PM 47.2167 -78.3833 204° Southwest 400 460 36,000  Level Montreal Center
04:22PM 47.0833 -78.4500 199° South 410 472 36,000  Level Montreal Center
04:23PM 46.9833 -78.5000 199° South 410 472 36,000  Level Montreal Center
04:24PM 46.8833 -78.5667 205° Southwest 410 472 36,000  Level Montreal Center
04:25PM 46.7667 -78.6167 196° South 410 472 36,000  Level Montreal Center
04:26PM 46.6667 -78.6833 205° Southwest 410 472 36,000  Level Montreal Center
04:27PM 46.5667 -78.7500 205° Southwest 410 472 36,000  Level Montreal Center
04:28PM 46.4667 -78.8000 199° South 410 472 36,000  Level Montreal Center
04:29PM 46.3500 -78.8667 202° Southwest 410 472 36,000  Level Montreal Center
04:30PM 46.2333 -78.9333 202° Southwest 420 483 36,000  Level Montreal Center
04:31PM 46.1333 -79.0000 205° Southwest 410 472 36,000  Level Montreal Center
04:32PM 46.0167 -79.0333 191° South 420 483 36,000  Level Montreal Center
04:33PM 45.9167 -79.1000 205° Southwest 420 483 36,000  Level Montreal Center
04:34PM 45.8000 -79.1667 202° Southwest 420 483 36,000  Level Montreal Center
04:35PM 45.7000 -79.2000 193° South 420 483 36,000  Level Montreal Center
04:36PM 45.5833 -79.2667 202° Southwest 420 483 36,000  Level Montreal Center
04:37PM 45.4667 -79.3333 202° Southwest 420 483 36,000  Level Montreal Center
04:38PM 45.3500 -79.4000 202° Southwest 420 483 36,000  Level Montreal Center
04:39PM 45.2500 -79.4500 199° South 420 483 36,000  Level Montreal Center
04:40PM 45.1500 -79.5000 199° South 410 472 36,000  Level Montreal Center
04:41PM 45.0500 -79.5500 199° South 410 472 36,000  Level Montreal Center
04:42PM 44.8833 -79.6167 196° South 420 483 36,000  Level Toronto Center
04:48PM 44.3442 -80.0075 196° South 385 443 36,000  Level FlightAware ADS-B
04:49PM 44.2855 -80.0601 213° Southwest 384 442 36,000  Level FlightAware ADS-B
04:49PM 44.2258 -80.1134 213° Southwest 384 442 36,000  Level FlightAware ADS-B
04:50PM 44.1842 -80.1506 213° Southwest 387 445 36,000  Level FlightAware ADS-B
04:51PM 44.1134 -80.2136 213° Southwest 390 449 36,000  Level FlightAware ADS-B
04:51PM 44.0468 -80.2727 213° Southwest 390 449 36,000  Level FlightAware ADS-B
04:52PM 43.9750 -80.3362 212° Southwest 390 449 36,000  Level FlightAware ADS-B
04:53PM 43.9196 -80.3851 212° Southwest 391 450 36,000  Level FlightAware ADS-B
04:53PM 43.8701 -80.4287 212° Southwest 393 452 36,000  Level FlightAware ADS-B
04:54PM 43.8037 -80.4871 212° Southwest 395 455 36,000  Level FlightAware ADS-B (CYHM)
04:54PM 43.7813 -80.5068 212° Southwest 395 455 36,000  Level FlightAware ADS-B (CYHM)
04:55PM 43.7117 -80.5677 212° Southwest 396 456 36,000  Level FlightAware ADS-B
04:55PM 43.6501 -80.6215 212° Southwest 395 455 36,000  Level FlightAware ADS-B (CYHM)
04:56PM 43.5919 -80.6720 212° Southwest 394 453 36,000  Level FlightAware ADS-B (CYHM)
04:57PM 43.5452 -80.7127 212° Southwest 393 452 36,000  Level FlightAware ADS-B
04:57PM 43.4860 -80.7641 212° Southwest 392 451 36,000  Level FlightAware ADS-B
04:58PM 43.4370 -80.8064 212° Southwest 392 451 36,000  Level FlightAware ADS-B
04:59PM 43.3736 -80.8611 212° Southwest 394 453 36,000  Level FlightAware ADS-B
04:59PM 43.3152 -80.9117 212° Southwest 394 453 36,000  Level FlightAware ADS-B
05:00PM 43.2404 -80.9759 212° Southwest 395 455 36,000  Level FlightAware ADS-B
05:01PM 43.1985 -81.0118 212° Southwest 395 455 36,000  Level FlightAware ADS-B
05:01PM 43.1539 -81.0499 212° Southwest 392 451 36,000  Level FlightAware ADS-B
05:02PM 43.1539 -81.0499 212° Southwest 391 450 36,000  Level FlightAware ADS-B
05:03PM 42.9760 -81.1863 209° Southwest 401 461 36,000  Level FlightAware ADS-B
05:05PM 42.8158 -81.2862 205° Southwest 399 459 36,000  Level FlightAware ADS-B
05:06PM 42.6949 -81.3605 204° Southwest 393 452 36,000  Level FlightAware ADS-B
05:07PM 42.5572 -81.4447 204° Southwest 387 445 36,000  Level FlightAware ADS-B
05:08PM 42.4956 -81.4822 204° Southwest 385 443 36,000  Level FlightAware ADS-B
05:08PM 42.4432 -81.5141 204° Southwest 384 442 36,000  Level FlightAware ADS-B
05:09PM 42.3167 -81.5667 204° Southwest 380 437 36,000  Level Toronto Center
05:10PM 42.2167 -81.6333 206° Southwest 380 437 36,000  Level Toronto Center
05:11PM 42.1333 -81.6833 204° Southwest 380 437 36,000  Level Toronto Center
05:12PM 42.0333 -81.7500 206° Southwest 380 437 36,000  Level Toronto Center
05:13PM 41.9864 -81.7897 212° Southwest 377 434 36,000  Level Cleveland Center
05:14PM 41.8919 -81.8461 204° Southwest 370 426 36,000  Level Cleveland Center
05:15PM 41.7964 -81.9031 204° Southwest 373 429 36,000  Level Cleveland Center
05:16PM 41.7000 -81.9597 204° Southwest 376 433 36,000  Level Cleveland Center
05:17PM 41.6047 -82.0164 204° Southwest 375 432 36,000  Level Cleveland Center
05:18PM 41.5086 -82.0728 204° Southwest 377 434 36,000  Level Cleveland Center
05:19PM 41.3989 -82.1364 204° Southwest 369 425 36,000  Level Cleveland Center
05:20PM 41.2992 -82.1825 199° South 383 441 36,000  Level Cleveland Center
05:21PM 41.1936 -82.2197 195° South 391 450 36,000  Level Cleveland Center
05:22PM 41.0867 -82.2575 195° South 394 453 36,000  Level Cleveland Center
05:23PM 40.9797 -82.2944 195° South 395 455 36,000  Level Cleveland Center
05:24PM 40.8564 -82.3389 195° South 392 451 36,000  Level Cleveland Center
05:25PM 40.7497 -82.3769 195° South 392 451 36,000  Level Cleveland Center
05:26PM 40.6436 -82.4147 195° South 392 451 36,000  Level Cleveland Center
05:27PM 40.5311 -82.4539 195° South 389 448 36,000  Level Cleveland Center
05:34PM 40.1352 -82.5879 195° South 414 476 36,000  Level FlightAware ADS-B (KPMH)
05:35PM 39.6784 -82.6205 183° South 410 472 36,000  Level FlightAware ADS-B (KPMH)
05:36PM 39.5949 -82.6261 183° South 408 470 36,000  Level FlightAware ADS-B (KPMH)
05:37PM 39.5212 -82.6310 183° South 405 466 36,000  Level FlightAware ADS-B (KPMH)
05:37PM 39.4443 -82.6361 183° South 405 466 36,000  Level FlightAware ADS-B (KPMH)
05:38PM 39.3843 -82.6402 183° South 407 468 36,000  Level FlightAware ADS-B (KPMH)
05:39PM 39.2965 -82.6460 183° South 405 466 36,000  Level FlightAware ADS-B (KPMH)
05:39PM 39.2222 -82.6509 183° South 403 464 36,000  Level FlightAware ADS-B (KPMH)
05:40PM 39.1525 -82.6556 183° South 404 465 36,000  Level FlightAware ADS-B (KPMH)
05:41PM 39.0852 -82.6601 183° South 399 459 36,000  Level FlightAware ADS-B (KPMH)
05:41PM 38.9983 -82.6658 183° South 397 457 36,000  Level FlightAware ADS-B (KPMH)
05:42PM 38.9227 -82.6708 183° South 399 459 36,000  Level FlightAware ADS-B (KPMH)
05:43PM 38.8541 -82.6837 188° South 374 430 36,000  Level FlightAware ADS-B (KPMH)
05:43PM 38.7891 -82.7060 195° South 366 421 36,000  Level FlightAware ADS-B (KPMH)
05:44PM 38.7026 -82.7351 195° South 360 414 36,000  Level FlightAware ADS-B (KPMH)
05:45PM 38.5994 -82.7636 195° South 365 420 36,000  Level Indianapolis Center
05:46PM 38.4892 -82.7567 177° South 391 450 36,000  Level Indianapolis Center
05:47PM 38.3797 -82.7597 181° South 393 452 36,000  Level Indianapolis Center
05:48PM 38.2700 -82.7617 181° South 392 451 36,000  Level Indianapolis Center
05:49PM 38.1439 -82.7622 180° South 389 448 36,000  Level Indianapolis Center
05:50PM 38.0367 -82.7622 180° South 386 444 36,000  Level Indianapolis Center
05:51PM 37.9283 -82.7628 180° South 386 444 36,000  Level Indianapolis Center
05:52PM 37.8211 -82.7644 181° South 384 442 36,000  Level Indianapolis Center
05:54PM 37.7128 -82.7669 181° South 389 448 36,000  Level Indianapolis Center
05:55PM 37.5989 -82.8058 195° South 360 414 36,000  Level Indianapolis Center
05:56PM 37.5133 -82.8589 206° Southwest 344 396 36,000  Level Indianapolis Center
05:57PM 37.4286 -82.9158 208° Southwest 346 398 36,000  Level Indianapolis Center
05:58PM 37.3433 -82.9722 208° Southwest 346 398 36,000  Level Indianapolis Center
05:59PM 37.2581 -83.0283 208° Southwest 346 398 36,000  Level Indianapolis Center
06:00PM 37.1733 -83.0831 207° Southwest 345 397 36,000  Level Indianapolis Center
06:01PM 37.0742 -83.1486 208° Southwest 347 399 36,000  Level Indianapolis Center
06:02PM 36.9892 -83.2028 207° Southwest 345 397 36,000  Level Indianapolis Center
06:03PM 36.9039 -83.2583 208° Southwest 347 399 36,000  Level Indianapolis Center
06:04PM 36.8186 -83.3139 208° Southwest 348 400 36,000  Level Indianapolis Center
06:05PM 36.7186 -83.3767 207° Southwest 347 399 36,000  Level Indianapolis Center
06:06PM 36.6336 -83.4314 207° Southwest 345 397 36,000  Level Indianapolis Center
06:07PM 36.5494 -83.4853 207° Southwest 341 392 36,000  Level Indianapolis Center
06:08PM 36.4586 -83.5433 207° Southwest 346 398 36,000  Level Indianapolis Center
06:09PM 36.3728 -83.5989 208° Southwest 345 397 36,000  Level Indianapolis Center
06:10PM 36.2872 -83.6519 207° Southwest 344 396 36,000  Level Indianapolis Center
06:11PM 36.2025 -83.7058 207° Southwest 341 392 36,000  Level Indianapolis Center
06:12PM 36.0956 -83.7742 207° Southwest 345 397 36,000  Level Atlanta Center
06:13PM 36.0122 -83.8283 208° Southwest 345 397 36,000  Level Atlanta Center
06:14PM 35.9289 -83.8797 207° Southwest 345 397 36,000  Level Atlanta Center
06:15PM 35.8331 -83.9133 196° South 365 420 36,000  Level Atlanta Center
06:16PM 35.7392 -83.9492 197° South 365 420 36,000  Level Atlanta Center
06:17PM 35.6306 -83.9647 187° South 458 527 36,000  Level Atlanta Center
06:18PM 35.5264 -83.9878 190° South 428 493 36,000  Level Atlanta Center
06:19PM 35.4242 -84.0133 192° South 395 455 36,000  Level Atlanta Center
06:20PM 35.3219 -84.0389 192° South 383 441 36,000  Level Atlanta Center
06:21PM 35.2175 -84.0617 190° South 383 441 36,000  Level Atlanta Center
06:22PM 35.1133 -84.0869 191° South 383 441 36,000  Level Atlanta Center
06:23PM 35.0089 -84.1122 191° South 388 447 36,000  Level Atlanta Center
06:24PM 34.9025 -84.1400 192° South 393 452 36,000  Level Atlanta Center
06:25PM 34.8003 -84.1628 190° South 393 452 36,000  Level Atlanta Center
06:26PM 34.6958 -84.1853 190° South 388 447 36,000  Level Atlanta Center
06:27PM 34.5936 -84.2103 191° South 388 447 36,000  Level Atlanta Center
06:28PM 34.4892 -84.2353 191° South 388 447 36,000  Level Atlanta Center
06:29PM 34.3825 -84.2603 191° South 393 452 36,000  Level Atlanta Center
06:30PM 34.2658 -84.2878 191° South 393 452 36,000  Level Atlanta Center
06:31PM 34.1633 -84.3100 190° South 388 447 36,000  Level Atlanta Center
06:32PM 34.0528 -84.3372 192° South 395 455 36,000  Level Atlanta Center
06:33PM 33.9483 -84.3644 192° South 384 442 36,000  Level Atlanta Center
06:34PM 33.8458 -84.3864 190° South 394 453 36,000  Level Atlanta Center
06:35PM 33.7394 -84.4136 192° South 394 453 36,000  Level Atlanta Center
06:36PM 33.6369 -84.4331 189° South 399 459 36,000  Level Atlanta Center
06:37PM 33.5222 -84.4350 181° South 407 468 36,000  Level Atlanta Center
06:38PM 33.4075 -84.4319 179° South 412 474 36,000  Level Atlanta Center
06:39PM 33.2844 -84.4339 181° South 412 474 36,000  Level Atlanta Center
06:40PM 33.1675 -84.4283 178° South 417 480 36,000  Level Atlanta Center
06:41PM 33.0506 -84.4278 180° South 417 480 36,000  Level Atlanta Center
06:42PM 32.9317 -84.4225 178° South 422 486 36,000  Level Atlanta Center
06:43PM 32.8167 -84.4219 180° South 417 480 36,000  Level Atlanta Center
06:44PM 32.7125 -84.4189 179° South 417 480 36,000  Level Atlanta Center
06:45PM 32.5956 -84.4161 179° South 422 486 36,000  Level Atlanta Center
06:46PM 32.4767 -84.4131 179° South 422 486 36,000  Level Atlanta Center
06:47PM 32.3575 -84.4125 180° South 422 486 36,000  Level Atlanta Center
06:48PM 32.2428 -84.4097 179° South 422 486 36,000  Level Atlanta Center
06:50PM 32.0511 -84.4050 179° South 432 497 36,000  Level Jacksonville Center
06:56PM 31.3505 -84.3894 179° South 433 498 36,000  Level FlightAware ADS-B (KTLH)
06:57PM 31.1800 -84.3860 179° South 432 497 36,000  Level FlightAware ADS-B (KTLH)
06:58PM 31.0968 -84.3844 179° South 432 497 36,000 -120 Level FlightAware ADS-B (KTLH)
06:58PM 31.0316 -84.3832 179° South 432 497 35,900 -420 Descending FlightAware ADS-B (KTLH)
06:59PM 30.9387 -84.3814 179° South 431 496 35,500 -660 Descending FlightAware ADS-B (KTLH)
07:00PM 30.8725 -84.3802 179° South 433 498 35,100 -420 Descending FlightAware ADS-B (KTLH)
07:00PM 30.7902 -84.3786 179° South 433 498 35,000 -120 Descending FlightAware ADS-B (KTLH)
07:01PM 30.7113 -84.3770 179° South 431 496 35,000  Level FlightAware ADS-B (KTLH)
07:02PM 30.6312 -84.3692 175° South 441 507 35,000  Level FlightAware ADS-B (KTLH)
07:02PM 30.5542 -84.3498 168° South 451 519 35,000  Level FlightAware ADS-B (KTLH)
07:03PM 30.4762 -84.3172 160° South 463 533 35,000  Level FlightAware ADS-B (KTLH)
07:04PM 30.3934 -84.2668 152° Southeast 471 542 35,000  Level FlightAware ADS-B (KTLH)
07:04PM 30.3167 -84.2167 151° Southeast 473 544 35,000  Level FlightAware ADS-B (KTLH)
07:05PM 30.2491 -84.1727 151° Southeast 473 544 35,000  Level FlightAware ADS-B (KTLH)
07:05PM 30.1901 -84.1342 151° Southeast 474 545 35,000  Level FlightAware ADS-B (KTLH)
07:06PM 30.1342 -84.0978 151° Southeast 474 545 35,000  Level FlightAware ADS-B (KTLH)
07:07PM 30.0524 -84.0445 151° Southeast 473 544 35,000  Level FlightAware ADS-B (KTLH)
07:07PM 29.9671 -83.9892 151° Southeast 471 542 35,000  Level FlightAware ADS-B (KTLH)
07:08PM 29.9117 -83.9534 151° Southeast 472 543 35,000  Level FlightAware ADS-B (KTLH)
07:09PM 29.8033 -83.8858 151° Southeast 473 544 35,000  Level Jacksonville Center
07:10PM 29.6911 -83.8131 151° Southeast 473 544 35,000  Level Jacksonville Center
07:11PM 29.5769 -83.7403 151° Southeast 473 544 35,000  Level Jacksonville Center
07:12PM 29.4603 -83.6678 152° Southeast 473 544 35,000  Level Jacksonville Center
07:13PM 29.3461 -83.5931 150° Southeast 473 544 35,000  Level Jacksonville Center
07:14PM 29.2317 -83.5208 151° Southeast 473 544 35,000  Level Jacksonville Center
07:15PM 29.1067 -83.4392 150° Southeast 478 550 35,000  Level Jacksonville Center
07:16PM 28.9900 -83.3650 151° Southeast 473 544 35,000  Level Jacksonville Center
07:17PM 28.8733 -83.2908 151° Southeast 478 550 35,000  Level Jacksonville Center
07:22PM 28.2534 -82.8992 151° Southeast 480 552 35,000  Level FlightAware ADS-B (KMCO)
07:25PM 27.9549 -82.7136 151° Southeast 478 550 35,000  Level FlightAware ADS-B (KMCO)
07:25PM 27.8781 -82.6658 151° Southeast 475 547 35,000  Level FlightAware ADS-B (KMCO)
07:27PM 27.7562 -82.5833 149° Southeast 477 549 35,000  Level FlightAware ADS-B (KMCO)
07:27PM 27.6763 -82.5299 149° Southeast 474 545 35,000  Level FlightAware ADS-B (KMCO)
07:28PM 27.5704 -82.4718 154° Southeast 456 525 35,000 -300 Level FlightAware ADS-B (KMCO)
07:31PM 27.1984 -82.4728 180° South 451 519 34,000 -240 Descending FlightAware ADS-B (KMCO)
07:33PM 27.0177 -82.4755 181° South 454 522 34,000  Level FlightAware ADS-B (KMCO)
07:33PM 26.9030 -82.4771 181° South 451 519 34,000  Level FlightAware ADS-B (KMCO)
07:34PM 26.8005 -82.4786 181° South 451 519 34,000  Level FlightAware ADS-B (KMCO)
07:35PM 26.7023 -82.4801 181° South 451 519 34,000  Level FlightAware ADS-B (KMCO)
07:36PM 26.6176 -82.4813 181° South 451 519 34,000  Level FlightAware ADS-B (KMCO)
07:36PM 26.5363 -82.4825 181° South 453 521 34,000  Level FlightAware ADS-B (KMCO)
07:37PM 26.4488 -82.4837 181° South 455 524 34,000  Level FlightAware ADS-B (KMCO)
07:38PM 26.3186 -82.4857 181° South 456 525 34,000  Level FlightAware ADS-B (KMCO)
07:39PM 26.2326 -82.4869 181° South 455 524 34,000  Level FlightAware ADS-B (KMCO)
07:40PM 26.0573 -82.4895 181° South 454 522 34,000  Level FlightAware ADS-B (KMCO)
07:41PM 25.9917 -82.4904 181° South 454 522 34,000  Level FlightAware ADS-B (KMCO)
07:42PM 25.8837 -82.4920 181° South 455 524 34,000  Level FlightAware ADS-B (KMCO)
07:42PM 25.8008 -82.4932 181° South 456 525 34,000 -240 Level FlightAware ADS-B (KMCO)
07:45PM 25.4902 -82.4976 181° South 459 528 33,400 -420 Descending FlightAware ADS-B (KMCO)
07:45PM 25.4289 -82.5017 181° South 463 533 32,800 -1,500 Descending Miami Center
07:46PM 25.3056 -82.5028 180° South 456 525 31,000 -1,860 Descending Miami Center
07:47PM 25.1886 -82.5042 181° South 444 511 29,100 -1,800 Descending Miami Center
07:48PM 25.0717 -82.5056 181° South 437 503 27,400 -1,740 Descending Miami Center
07:50PM 24.9457 -82.4892 173° South  Level FlightAware Approximate
07:57PM 24.2367 -82.4167 180° South  Level FlightAware Approximate
07:58PM 24.1353 -82.4167 180° South  Level FlightAware Approximate
07:59PM 24.0368 -82.4017 155° Southeast  Level FlightAware Approximate
08:00PM 23.9357 -82.4000 180° South  Level FlightAware Approximate
08:01PM 23.8343 -82.4000 180° South  Level FlightAware Approximate
08:02PM 23.7329 -82.4000 180° South  Level FlightAware Approximate
08:03PM 23.6314 -82.4000 180° South  Level FlightAware Approximate
08:04PM 23.5300 -82.4000 180° South  Level FlightAware Approximate
08:05PM 23.4286 -82.4000 180° South  Level FlightAware Approximate
08:06PM 23.3272 -82.4000 180° South  Level FlightAware Approximate
08:07PM 23.2257 -82.4000 180° South  Level FlightAware Approximate
08:08PM 23.1243 -82.4000 180° South  Level FlightAware Approximate
08:09PM 23.0229 -82.4000 180° South  Level FlightAware Approximate
08:10PM 22.9891 -82.4091 180° South  Level Estimated
08:11PM 22.9891 -82.4091 180° South  Level Estimated
08:12PM 22.9891 -82.4091 180° South  Level Estimated
08:13PM 22.9891 -82.4091 180° South  Level Estimated
08:14PM 22.9891 -82.4091 180° South  Level Estimated
08:15PM 22.9891 -82.4091 180° South  Level Estimated
08:16PM 22.9891 -82.4091 180° South  Level Estimated
08:17PM 22.9891 -82.4091 180° South  Level Estimated
08:18PM 22.9891 -82.4091 180° South  Level Estimated
08:19PM 22.9891 -82.4091 180° South  Level Estimated
08:20PM 22.9891 -82.4091 180° South  Level Estimated
08:21PM 22.9891 -82.4091 180° South  Level Estimated
08:22PM 22.9891 -82.4091 180° South  Level Estimated
08:23PM 22.9891 -82.4091 180° South  Level Estimated
08:24PM 22.9891 -82.4091 180° South  Level Estimated
08:25PM 22.9891 -82.4091 180° South  Level Estimated
08:26PM 22.9891 -82.4091 180° South  Level Estimated
08:27PM 22.9891 -82.4091 180° South  Level Estimated
08:28PM 22.9891 -82.4091 180° South  Level Estimated